createdAt,value
2023-04-29T00:01:22.982Z,1.20
2023-04-29T00:03:49.971Z,1.17
2023-04-29T00:06:17.168Z,1.10
2023-04-29T00:08:44.090Z,1.13
2023-04-29T00:11:11.661Z,1.30
2023-04-29T00:13:40.840Z,1.10
2023-04-29T00:16:10.193Z,1.00
2023-04-29T00:18:37.930Z,0.87
2023-04-29T00:21:07.858Z,0.80
2023-04-29T00:23:34.790Z,0.80
2023-04-29T00:26:01.618Z,1.00
2023-04-29T00:28:28.458Z,0.90
2023-04-29T00:30:56.031Z,0.70
2023-04-29T00:33:23.159Z,0.70
2023-04-29T00:35:50.323Z,0.70
2023-04-29T00:38:17.245Z,0.80
2023-04-29T00:40:44.918Z,0.70
2023-04-29T00:43:11.753Z,0.70
2023-04-29T00:45:38.585Z,0.73
2023-04-29T00:48:05.559Z,0.80
2023-04-29T00:50:32.493Z,0.80
2023-04-29T00:53:00.193Z,0.70
2023-04-29T00:55:27.435Z,0.70
2023-04-29T00:57:54.407Z,0.90
2023-04-29T01:00:21.647Z,0.60
2023-04-29T01:02:50.120Z,1.03
2023-04-29T01:05:17.993Z,0.70
2023-04-29T01:08:11.369Z,0.63
2023-04-29T01:11:23.246Z,0.50
2023-04-29T01:14:00.920Z,0.73
2023-04-29T01:16:53.136Z,0.57
2023-04-29T01:19:38.594Z,0.70
2023-04-29T01:22:05.412Z,0.60
2023-04-29T01:24:32.575Z,0.50
2023-04-29T01:28:03.988Z,0.57
2023-04-29T01:31:07.143Z,0.80
2023-04-29T01:34:15.175Z,0.50
2023-04-29T01:36:53.179Z,0.70
2023-04-29T01:39:33.087Z,0.77
2023-04-29T01:42:41.739Z,0.70
2023-04-29T01:45:11.071Z,0.77
2023-04-29T01:47:39.285Z,0.80
2023-04-29T01:50:06.949Z,0.67
2023-04-29T01:52:33.831Z,0.70
2023-04-29T01:55:00.985Z,0.70
2023-04-29T01:57:27.765Z,0.70
2023-04-29T01:59:54.829Z,0.90
2023-04-29T02:02:23.551Z,0.90
2023-04-29T02:04:50.759Z,0.87
2023-04-29T02:07:17.765Z,0.80
2023-04-29T02:09:44.744Z,0.80
2023-04-29T02:12:11.637Z,1.00
2023-04-29T02:14:38.717Z,1.00
2023-04-29T02:17:05.631Z,0.77
2023-04-29T02:19:32.493Z,1.00
2023-04-29T02:21:59.342Z,0.90
2023-04-29T02:24:26.327Z,0.70
2023-04-29T02:26:53.602Z,0.70
2023-04-29T02:29:20.506Z,0.90
2023-04-29T02:31:47.510Z,1.00
2023-04-29T02:34:14.339Z,0.83
2023-04-29T02:36:41.161Z,1.10
2023-04-29T02:39:08.002Z,0.97
2023-04-29T02:41:34.887Z,1.10
2023-04-29T02:44:01.682Z,1.10
2023-04-29T02:46:28.881Z,1.50
2023-04-29T02:48:55.925Z,1.20
2023-04-29T02:51:22.786Z,1.00
2023-04-29T02:53:49.593Z,1.13
2023-04-29T02:56:16.502Z,1.20
2023-04-29T02:58:43.841Z,1.20
2023-04-29T03:01:11.209Z,1.23
2023-04-29T03:03:38.184Z,1.20
2023-04-29T03:06:05.063Z,1.33
2023-04-29T03:08:32.695Z,1.27
2023-04-29T03:10:59.948Z,1.27
2023-04-29T03:13:26.926Z,1.60
2023-04-29T03:15:53.999Z,1.60
2023-04-29T03:18:20.852Z,1.30
2023-04-29T03:20:47.652Z,1.50
2023-04-29T03:23:14.444Z,1.47
2023-04-29T03:25:41.690Z,1.50
2023-04-29T03:28:08.687Z,1.60
2023-04-29T03:30:35.576Z,1.60
2023-04-29T03:33:02.561Z,1.73
2023-04-29T03:35:29.400Z,1.50
2023-04-29T03:37:56.206Z,1.80
2023-04-29T03:40:23.120Z,1.80
2023-04-29T03:42:50.246Z,2.10
2023-04-29T03:45:17.637Z,1.90
2023-04-29T03:47:44.536Z,1.83
2023-04-29T03:50:11.885Z,1.83
2023-04-29T03:52:38.923Z,1.80
2023-04-29T03:55:06.117Z,2.30
2023-04-29T03:57:32.930Z,2.17
2023-04-29T03:59:59.821Z,2.50
2023-04-29T04:02:26.886Z,2.73
2023-04-29T04:04:55.316Z,2.77
2023-04-29T04:07:22.353Z,2.50
2023-04-29T04:09:49.273Z,3.10
2023-04-29T04:12:16.176Z,3.07
2023-04-29T04:14:43.111Z,2.90
2023-04-29T04:17:10.197Z,3.10
2023-04-29T04:19:37.053Z,2.90
2023-04-29T04:22:04.740Z,3.00
2023-04-29T04:24:31.604Z,2.80
2023-04-29T04:26:58.516Z,2.63
2023-04-29T04:29:25.306Z,2.77
2023-04-29T04:31:52.193Z,3.20
2023-04-29T04:34:19.351Z,2.93
2023-04-29T04:36:46.778Z,3.03
2023-04-29T04:39:13.623Z,3.33
2023-04-29T04:41:40.487Z,3.27
2023-04-29T04:44:07.378Z,3.20
2023-04-29T04:46:35.061Z,3.23
2023-04-29T04:49:01.831Z,3.97
2023-04-29T04:51:31.214Z,3.97
2023-04-29T04:53:58.037Z,4.33
2023-04-29T04:56:24.891Z,4.40
2023-04-29T04:58:51.751Z,4.20
2023-04-29T05:01:18.760Z,4.63
2023-04-29T05:03:45.937Z,4.33
2023-04-29T05:06:12.982Z,4.30
2023-04-29T05:08:39.846Z,4.10
2023-04-29T05:11:06.663Z,4.27
2023-04-29T05:13:34.399Z,4.20
2023-04-29T05:16:06.349Z,3.63
2023-04-29T05:18:33.516Z,4.73
2023-04-29T05:21:00.386Z,4.50
2023-04-29T05:23:27.938Z,3.87
2023-04-29T05:25:54.822Z,4.40
2023-04-29T05:28:21.794Z,4.67
2023-04-29T05:30:52.011Z,4.37
2023-04-29T05:33:19.099Z,4.10
2023-04-29T05:35:46.044Z,4.30
2023-04-29T05:38:13.372Z,3.90
2023-04-29T05:40:40.685Z,4.00
2023-04-29T05:43:07.694Z,4.10
2023-04-29T05:45:34.478Z,4.00
2023-04-29T05:48:01.391Z,3.73
2023-04-29T05:50:28.295Z,3.57
2023-04-29T05:52:56.453Z,3.77
2023-04-29T05:55:23.986Z,3.23
2023-04-29T05:57:50.813Z,3.30
2023-04-29T06:00:17.618Z,3.30
2023-04-29T06:02:57.507Z,3.57
2023-04-29T06:05:26.948Z,3.53
2023-04-29T06:07:54.336Z,3.80
2023-04-29T06:10:21.234Z,3.70
2023-04-29T06:12:50.846Z,3.40
2023-04-29T06:15:17.947Z,3.90
2023-04-29T06:17:45.120Z,4.17
2023-04-29T06:20:12.702Z,4.23
2023-04-29T06:22:39.480Z,4.10
2023-04-29T06:25:06.648Z,4.50
2023-04-29T06:27:33.505Z,5.37
2023-04-29T06:30:00.617Z,4.93
2023-04-29T06:32:27.470Z,4.63
2023-04-29T06:34:54.322Z,4.87
2023-04-29T06:37:21.288Z,4.90
2023-04-29T06:39:48.246Z,6.07
2023-04-29T06:42:15.143Z,5.60
2023-04-29T06:44:42.011Z,6.10
2023-04-29T06:47:08.845Z,6.17
2023-04-29T06:49:35.748Z,6.10
2023-04-29T06:52:02.763Z,5.27
2023-04-29T06:54:29.717Z,6.23
2023-04-29T06:56:58.145Z,6.07
2023-04-29T06:59:25.044Z,6.40
2023-04-29T07:01:52.333Z,6.57
2023-04-29T07:04:19.431Z,5.77
2023-04-29T07:06:47.133Z,6.00
2023-04-29T07:09:14.735Z,5.67
2023-04-29T07:11:42.787Z,6.03
2023-04-29T07:14:09.705Z,5.23
2023-04-29T07:16:36.546Z,5.77
2023-04-29T07:19:03.500Z,5.57
2023-04-29T07:21:31.296Z,6.13
2023-04-29T07:24:00.776Z,6.70
2023-04-29T07:26:27.903Z,6.30
2023-04-29T07:28:54.781Z,6.17
2023-04-29T07:31:22.506Z,6.20
2023-04-29T07:33:49.509Z,5.77
2023-04-29T07:36:19.864Z,5.07
2023-04-29T07:38:46.843Z,5.23
2023-04-29T07:41:13.815Z,4.80
2023-04-29T07:43:42.360Z,5.50
2023-04-29T07:46:09.562Z,5.27
2023-04-29T07:48:39.490Z,4.27
2023-04-29T07:51:06.785Z,5.00
2023-04-29T07:53:33.733Z,4.43
2023-04-29T07:56:07.500Z,4.40
2023-04-29T07:58:34.709Z,4.70
2023-04-29T08:01:12.229Z,4.40
2023-04-29T08:03:41.600Z,4.33
2023-04-29T08:06:09.371Z,4.40
2023-04-29T08:08:36.262Z,3.60
2023-04-29T08:11:03.463Z,3.47
2023-04-29T08:13:30.316Z,3.60
2023-04-29T08:15:57.236Z,3.43
2023-04-29T08:18:24.108Z,3.20
2023-04-29T08:20:51.577Z,3.17
2023-04-29T08:23:18.486Z,3.03
2023-04-29T08:25:45.407Z,3.33
2023-04-29T08:28:12.356Z,3.10
2023-04-29T08:30:42.304Z,2.53
2023-04-29T08:33:09.298Z,2.53
2023-04-29T08:35:39.275Z,2.27
2023-04-29T08:38:06.920Z,2.30
2023-04-29T08:40:42.840Z,2.30
2023-04-29T08:43:10.726Z,2.17
2023-04-29T08:45:39.478Z,2.27
2023-04-29T08:48:08.129Z,2.40
2023-04-29T08:50:40.670Z,2.43
2023-04-29T08:53:09.559Z,2.20
2023-04-29T08:55:43.400Z,2.10
2023-04-29T08:58:12.569Z,1.70
2023-04-29T09:00:42.596Z,2.00
2023-04-29T09:03:34.948Z,2.20
2023-04-29T09:06:03.522Z,1.90
2023-04-29T09:08:30.845Z,1.87
2023-04-29T09:10:58.934Z,2.07
2023-04-29T09:13:32.881Z,2.07
2023-04-29T09:15:59.959Z,1.77
2023-04-29T09:18:52.366Z,1.70
2023-04-29T09:21:24.318Z,1.80
2023-04-29T09:24:01.952Z,1.63
2023-04-29T09:26:42.689Z,1.60
2023-04-29T09:29:18.228Z,1.60
2023-04-29T09:31:46.356Z,1.60
2023-04-29T09:34:14.312Z,1.50
2023-04-29T09:36:47.798Z,1.60
2023-04-29T09:39:22.793Z,1.70
2023-04-29T09:41:52.561Z,1.20
2023-04-29T09:44:31.300Z,1.30
2023-04-29T09:47:06.872Z,1.20
2023-04-29T09:49:42.583Z,1.33
2023-04-29T09:52:13.385Z,1.37
2023-04-29T09:54:41.986Z,1.30
2023-04-29T09:57:11.599Z,1.50
2023-04-29T09:59:41.404Z,1.60
2023-04-29T10:02:20.908Z,1.50
2023-04-29T10:04:57.784Z,1.40
2023-04-29T10:07:26.976Z,1.60
2023-04-29T10:09:55.069Z,1.50
2023-04-29T10:12:22.387Z,1.60
2023-04-29T10:15:19.011Z,1.20
2023-04-29T10:18:22.221Z,1.27
2023-04-29T10:20:49.610Z,1.47
2023-04-29T10:23:20.286Z,1.30
2023-04-29T10:25:48.694Z,1.20
2023-04-29T10:28:19.571Z,1.40
2023-04-29T10:30:52.166Z,1.23
2023-04-29T10:33:19.473Z,1.40
2023-04-29T10:35:48.491Z,1.30
2023-04-29T10:38:31.132Z,1.20
2023-04-29T10:41:00.231Z,1.30
2023-04-29T10:43:27.846Z,1.10
2023-04-29T10:46:16.754Z,1.00
2023-04-29T10:48:55.671Z,1.10
2023-04-29T10:51:45.652Z,1.07
2023-04-29T10:54:18.899Z,1.10
2023-04-29T10:56:51.824Z,1.27
2023-04-29T10:59:42.614Z,1.20
2023-04-29T11:02:10.756Z,1.20
2023-04-29T11:05:10.543Z,1.13
2023-04-29T11:07:37.469Z,1.03
2023-04-29T11:10:04.947Z,0.80
2023-04-29T11:12:31.736Z,1.03
2023-04-29T11:15:04.857Z,0.90
2023-04-29T11:17:38.590Z,0.90
2023-04-29T11:20:14.842Z,1.10
2023-04-29T11:22:51.042Z,0.90
2023-04-29T11:25:18.921Z,0.97
2023-04-29T11:27:48.391Z,0.97
2023-04-29T11:30:16.761Z,1.10
2023-04-29T11:32:43.843Z,1.10
2023-04-29T11:35:16.330Z,0.93
2023-04-29T11:37:45.703Z,0.83
2023-04-29T11:40:13.674Z,0.90
2023-04-29T11:42:48.629Z,0.87
2023-04-29T11:45:18.277Z,1.07
2023-04-29T11:47:47.475Z,1.10
2023-04-29T11:50:20.377Z,1.07
2023-04-29T11:52:49.522Z,1.10
2023-04-29T11:55:16.688Z,1.00
2023-04-29T11:57:43.740Z,0.97
2023-04-29T12:00:15.128Z,0.80
2023-04-29T12:02:49.053Z,0.90
2023-04-29T12:05:17.368Z,0.80
2023-04-29T12:07:44.851Z,1.00
2023-04-29T12:10:12.440Z,1.20
2023-04-29T12:12:46.592Z,0.80
2023-04-29T12:15:14.473Z,1.20
2023-04-29T12:17:42.781Z,0.97
2023-04-29T12:20:11.921Z,1.10
2023-04-29T12:22:39.105Z,0.80
2023-04-29T12:25:07.731Z,1.07
2023-04-29T12:27:36.352Z,0.90
2023-04-29T12:30:09.646Z,0.80
2023-04-29T12:32:37.222Z,1.00
2023-04-29T12:35:04.597Z,0.83
2023-04-29T12:37:31.452Z,1.00
2023-04-29T12:39:58.320Z,0.90
2023-04-29T12:42:33.131Z,1.10
2023-04-29T12:45:00.020Z,1.10
2023-04-29T12:47:37.215Z,0.90
2023-04-29T12:50:07.096Z,0.90
2023-04-29T12:52:36.452Z,0.90
2023-04-29T12:55:04.630Z,1.20
2023-04-29T12:57:31.545Z,0.90
2023-04-29T12:59:58.315Z,1.00
2023-04-29T13:02:26.190Z,0.90
2023-04-29T13:04:53.479Z,0.87
2023-04-29T13:07:21.026Z,0.80
2023-04-29T13:09:47.884Z,0.77
2023-04-29T13:12:14.701Z,0.70
2023-04-29T13:14:41.567Z,0.73
2023-04-29T13:17:08.423Z,0.80
2023-04-29T13:22:06.744Z,1.00
2023-04-29T13:24:35.878Z,0.80
2023-04-29T13:27:05.963Z,0.90
2023-04-29T13:29:32.886Z,1.00
2023-04-29T13:31:59.799Z,1.13
2023-04-29T13:34:26.598Z,1.70
2023-04-29T13:36:53.410Z,1.70
2023-04-29T13:39:22.947Z,1.40
2023-04-29T13:41:50.093Z,1.50
2023-04-29T13:44:27.136Z,1.40
2023-04-29T13:46:55.897Z,1.60
2023-04-29T13:49:54.728Z,1.80
2023-04-29T13:53:01.765Z,1.60
2023-04-29T13:55:46.659Z,1.33
2023-04-29T14:00:38.013Z,1.77
2023-04-29T14:03:05.488Z,1.40
2023-04-29T14:05:32.532Z,1.40
2023-04-29T14:07:59.594Z,1.10
2023-04-29T14:10:26.426Z,1.30
2023-04-29T14:12:53.301Z,1.10
2023-04-29T14:15:20.728Z,1.00
2023-04-29T14:17:50.100Z,1.10
2023-04-29T14:20:16.949Z,1.10
2023-04-29T14:22:44.190Z,1.17
2023-04-29T14:25:12.415Z,1.40
2023-04-29T14:27:39.376Z,1.10
2023-04-29T14:30:07.239Z,1.30
2023-04-29T14:32:34.231Z,1.00
2023-04-29T14:35:01.100Z,1.00
2023-04-29T14:37:27.990Z,1.00
2023-04-29T14:39:54.972Z,1.10
2023-04-29T14:42:21.800Z,1.17
2023-04-29T14:44:48.666Z,1.10
2023-04-29T14:47:15.537Z,1.00
2023-04-29T14:49:42.718Z,1.10
2023-04-29T14:52:09.787Z,1.30
2023-04-29T14:54:36.855Z,1.10
2023-04-29T14:57:03.767Z,1.70
2023-04-29T14:59:31.673Z,1.30
2023-04-29T15:01:58.567Z,1.50
2023-04-29T15:04:25.397Z,1.70
2023-04-29T15:06:52.414Z,1.60
2023-04-29T15:09:19.327Z,2.10
2023-04-29T15:11:46.133Z,1.60
2023-04-29T15:14:13.004Z,1.53
2023-04-29T15:16:39.883Z,1.77
2023-04-29T15:19:06.827Z,1.37
2023-04-29T15:21:34.377Z,1.50
2023-04-29T15:24:02.595Z,1.60
2023-04-29T15:26:29.497Z,1.43
2023-04-29T15:28:56.302Z,1.20
2023-04-29T15:31:25.091Z,1.33
2023-04-29T15:33:55.492Z,1.20
2023-04-29T15:36:30.208Z,1.70
2023-04-29T15:38:57.204Z,2.07
2023-04-29T15:41:27.623Z,1.97
2023-04-29T15:43:56.444Z,1.60
2023-04-29T15:46:23.837Z,1.80
2023-04-29T15:48:50.742Z,2.10
2023-04-29T15:51:17.808Z,1.87
2023-04-29T15:53:44.738Z,1.83
2023-04-29T15:56:11.604Z,2.00
2023-04-29T15:58:38.431Z,2.57
2023-04-29T16:01:07.867Z,2.00
2023-04-29T16:03:35.163Z,2.60
2023-04-29T16:06:02.048Z,2.47
2023-04-29T16:08:28.949Z,2.13
2023-04-29T16:10:56.084Z,2.23
2023-04-29T16:13:22.979Z,2.33
2023-04-29T16:15:49.970Z,2.50
2023-04-29T16:18:17.888Z,2.27
2023-04-29T16:20:45.487Z,1.80
2023-04-29T16:23:12.459Z,2.10
2023-04-29T16:25:41.518Z,2.10
2023-04-29T16:28:08.436Z,2.20
2023-04-29T16:30:36.074Z,2.20
2023-04-29T16:33:03.356Z,2.50
2023-04-29T16:35:31.023Z,2.27
2023-04-29T16:37:58.011Z,2.40
2023-04-29T16:40:24.949Z,2.50
2023-04-29T16:42:53.324Z,2.70
2023-04-29T16:45:23.583Z,2.90
2023-04-29T16:47:50.887Z,2.93
2023-04-29T16:50:18.086Z,2.50
2023-04-29T16:52:45.085Z,3.50
2023-04-29T16:55:15.246Z,3.30
2023-04-29T16:57:42.336Z,3.53
2023-04-29T17:00:12.530Z,3.60
2023-04-29T17:02:43.063Z,3.27
2023-04-29T17:05:10.854Z,2.70
2023-04-29T17:07:38.039Z,3.07
2023-04-29T17:10:06.553Z,3.43
2023-04-29T17:12:33.668Z,4.80
2023-04-29T17:15:00.742Z,3.70
2023-04-29T17:17:27.767Z,3.67
2023-04-29T17:19:55.378Z,3.40
2023-04-29T17:22:22.724Z,3.37
2023-04-29T17:24:50.719Z,4.10
2023-04-29T17:27:17.836Z,4.23
2023-04-29T17:29:44.670Z,3.80
2023-04-29T17:32:17.197Z,3.87
2023-04-29T17:34:44.244Z,3.93
2023-04-29T17:37:11.206Z,4.03
2023-04-29T17:39:38.058Z,3.70
2023-04-29T17:42:05.076Z,3.83
2023-04-29T17:44:31.957Z,3.80
2023-04-29T17:46:58.739Z,4.00
2023-04-29T17:49:25.699Z,3.33
2023-04-29T17:51:52.561Z,3.77
2023-04-29T17:54:19.413Z,3.23
2023-04-29T17:56:46.286Z,3.50
2023-04-29T17:59:13.155Z,3.80
2023-04-29T18:01:40.287Z,4.23
2023-04-29T18:04:07.536Z,4.07
2023-04-29T18:06:34.878Z,3.90
2023-04-29T18:09:01.802Z,3.77
2023-04-29T18:11:29.128Z,3.43
2023-04-29T18:13:55.982Z,3.70
2023-04-29T18:16:22.917Z,3.30
2023-04-29T18:18:56.634Z,3.83
2023-04-29T18:21:25.432Z,3.27
2023-04-29T18:23:52.247Z,3.77
2023-04-29T18:26:19.299Z,3.70
2023-04-29T18:28:46.867Z,3.63
2023-04-29T18:31:15.677Z,4.03
2023-04-29T18:33:43.622Z,3.60
2023-04-29T18:36:10.835Z,3.43
2023-04-29T18:38:37.671Z,4.07
2023-04-29T18:41:06.547Z,3.53
2023-04-29T18:43:33.385Z,3.83
2023-04-29T18:46:00.514Z,3.83
2023-04-29T18:48:30.856Z,4.10
2023-04-29T18:51:00.064Z,3.70
2023-04-29T18:53:27.000Z,3.93
2023-04-29T18:55:53.914Z,3.57
2023-04-29T18:58:20.749Z,4.00
2023-04-29T19:00:47.756Z,3.80
2023-04-29T19:03:15.759Z,3.40
2023-04-29T19:05:43.075Z,3.60
2023-04-29T19:08:09.996Z,3.70
2023-04-29T19:10:36.832Z,3.43
2023-04-29T19:13:03.642Z,3.13
2023-04-29T19:15:32.042Z,3.63
2023-04-29T19:17:59.006Z,3.77
2023-04-29T19:20:27.293Z,3.63
2023-04-29T19:22:54.124Z,3.33
2023-04-29T19:25:21.728Z,3.40
2023-04-29T19:27:51.368Z,3.13
2023-04-29T19:30:18.373Z,2.90
2023-04-29T19:32:46.410Z,3.03
2023-04-29T19:35:13.394Z,3.00
2023-04-29T19:37:40.579Z,3.40
2023-04-29T19:40:10.551Z,3.37
2023-04-29T19:42:38.080Z,3.87
2023-04-29T19:45:07.795Z,3.90
2023-04-29T19:47:35.115Z,3.80
2023-04-29T19:50:02.816Z,3.50
2023-04-29T19:52:29.832Z,3.80
2023-04-29T19:54:57.119Z,3.77
2023-04-29T19:57:23.962Z,4.17
2023-04-29T19:59:50.810Z,3.80
2023-04-29T20:02:17.771Z,3.63
2023-04-29T20:04:44.690Z,3.70
2023-04-29T20:07:11.527Z,3.67
2023-04-29T20:09:38.581Z,3.67
2023-04-29T20:12:05.901Z,3.80
2023-04-29T20:14:32.906Z,3.60
2023-04-29T20:17:00.721Z,3.50
2023-04-29T20:19:27.903Z,3.67
2023-04-29T20:21:54.741Z,3.60
2023-04-29T20:24:21.624Z,4.03
2023-04-29T20:26:48.571Z,4.50
2023-04-29T20:29:15.514Z,4.87
2023-04-29T20:31:42.405Z,4.23
2023-04-29T20:34:09.255Z,3.67
2023-04-29T20:36:36.094Z,3.73
2023-04-29T20:39:03.448Z,3.70
2023-04-29T20:41:30.257Z,3.70
2023-04-29T20:43:58.613Z,3.80
2023-04-29T20:46:26.147Z,3.40
2023-04-29T20:48:53.644Z,4.10
2023-04-29T20:51:20.517Z,3.87
2023-04-29T20:53:47.954Z,3.10
2023-04-29T20:56:14.901Z,3.53
2023-04-29T20:58:41.739Z,3.43
2023-04-29T21:01:08.670Z,3.87
2023-04-29T21:03:35.610Z,3.87
2023-04-29T21:06:02.489Z,3.77
2023-04-29T21:08:29.451Z,3.90
2023-04-29T21:10:56.720Z,4.10
2023-04-29T21:13:23.566Z,4.00
2023-04-29T21:15:50.937Z,4.27
2023-04-29T21:18:17.966Z,3.87
2023-04-29T21:20:45.692Z,3.70
2023-04-29T21:23:12.541Z,3.67
2023-04-29T21:25:39.475Z,3.73
2023-04-29T21:28:06.595Z,3.57
2023-04-29T21:30:33.472Z,4.17
2023-04-29T21:33:00.371Z,4.27
2023-04-29T21:35:27.519Z,3.47
2023-04-29T21:37:54.570Z,4.00
2023-04-29T21:40:22.576Z,3.60
2023-04-29T21:42:51.068Z,3.93
2023-04-29T21:45:18.019Z,4.20
2023-04-29T21:47:45.314Z,4.17
2023-04-29T21:50:12.244Z,4.30
2023-04-29T21:52:39.316Z,3.93
2023-04-29T21:55:06.894Z,3.50
2023-04-29T21:57:43.621Z,4.17
2023-04-29T22:00:30.808Z,3.90
2023-04-29T22:02:57.719Z,3.97
2023-04-29T22:05:25.152Z,4.30
2023-04-29T22:07:51.972Z,3.77
2023-04-29T22:10:18.979Z,3.80
2023-04-29T22:12:45.811Z,4.07
2023-04-29T22:15:26.817Z,3.73
2023-04-29T22:17:55.248Z,3.73
2023-04-29T22:20:22.365Z,3.77
2023-04-29T22:22:49.204Z,3.70
2023-04-29T22:25:16.134Z,3.83
2023-04-29T22:27:42.931Z,3.80
2023-04-29T22:30:10.212Z,3.97
2023-04-29T22:32:37.042Z,4.23
2023-04-29T22:35:04.554Z,3.97
2023-04-29T22:37:31.604Z,3.97
2023-04-29T22:39:58.461Z,3.93
2023-04-29T22:42:25.263Z,3.70
2023-04-29T22:44:52.095Z,4.50
2023-04-29T22:47:18.955Z,3.93
2023-04-29T22:49:46.386Z,4.30
2023-04-29T22:52:13.183Z,4.00
2023-04-29T22:54:40.023Z,4.30
2023-04-29T22:57:07.440Z,4.03
2023-04-29T22:59:34.317Z,4.10
2023-04-29T23:02:01.184Z,3.83
2023-04-29T23:04:28.105Z,4.20
2023-04-29T23:06:54.966Z,4.10
2023-04-29T23:09:21.824Z,4.30
2023-04-29T23:11:48.661Z,3.87
2023-04-29T23:14:15.565Z,4.07
2023-04-29T23:16:42.406Z,4.40
2023-04-29T23:19:09.238Z,4.00
2023-04-29T23:21:36.142Z,4.07
2023-04-29T23:24:03.212Z,4.40
2023-04-29T23:26:30.610Z,4.50
2023-04-29T23:28:57.430Z,4.30
2023-04-29T23:31:24.351Z,3.57
2023-04-29T23:33:51.206Z,4.33
2023-04-29T23:36:17.989Z,4.17
2023-04-29T23:38:44.814Z,4.20
2023-04-29T23:41:11.711Z,3.80
2023-04-29T23:43:39.574Z,3.77
2023-04-29T23:46:06.561Z,4.17
2023-04-29T23:48:33.462Z,4.70
2023-04-29T23:51:00.443Z,4.53
2023-04-29T23:53:27.321Z,4.67
2023-04-29T23:55:54.147Z,4.60
2023-04-29T23:58:20.921Z,4.70
